METAR AND TAF INFORMATION
METAR FOR LEVD
ADDS - METARS form results

(0259 UTC 01 June 2020)
Data provider http://aviationweather.gov/metar/data/
 
METAR text: LEVD 010230Z AUTO 17002KT 4400 BR NCD 13/12 Q1015
Conditions at: LEVD (VALLADOLID(MIL/C, ES) observed 0230 UTC 01 June 2020
Temperature: 13.0°C (55°F)
Dewpoint: 12.0°C (54°F) [RH = 94%]
Pressure (altimeter): 29.97 inches Hg (1015.0 mb)
Winds: from the S (170 degrees) at 2 MPH (2 knots; 1.0 m/s)
Visibility: 2.73 miles (4.39 km)
Ceiling: at least 12,000 feet AGL
Clouds: sky clear below 12,000 feet AGL
Weather: BR  (mist)

METAR text: LEVD 010200Z AUTO 16003KT 8000 NCD 12/12 Q1015
Conditions at: LEVD (VALLADOLID(MIL/C, ES) observed 0200 UTC 01 June 2020
Temperature: 12.0°C (54°F)
Dewpoint: 12.0°C (54°F) [RH = 100%]
Pressure (altimeter): 29.97 inches Hg (1015.0 mb)
Winds: from the SSE (160 degrees) at 3 MPH (3 knots; 1.5 m/s)
Visibility: 5 miles ( 8 km)
Ceiling: at least 12,000 feet AGL
Clouds: sky clear below 12,000 feet AGL
Weather: no significant weather observed at this time

Forecast for: LEVD (VALLADOLID(MIL/C, ES)
Text: TAF LEVD 312300Z 0100/0124 VRB05KT CAVOK TX28/0115Z TN12/0106Z
Forecast period: 0000 UTC 01 June 2020 to 0000 UTC 02 June 2020
Forecast type: FROM: standard forecast or significant change
Winds: variable direction winds at 6 MPH (5 knots; 2.6 m/s)
Visibility: 6 or more miles 10+ km)
Ceiling: unknown
Clouds: missing
Weather: no significant weather forecast for this period
Text: PROB30
Forecast period: 1200 to 2200 UTC 01 June 2020
Forecast type: TEMPORARY: The following changes expected for less than half the time period
Winds: variable direction winds at 17 MPH (15 knots; 7.7 m/s)
gusting to 29 MPH (25 knots; 12.9 m/s)
Visibility: 1.86 miles (2.99 km)
Ceiling: at least 12,000 feet AGL
Clouds: scattered clouds at 3000 feet AGL
Weather: TS SHRA  (thunderstorm, rain showers)

 AIRPORT MAP

 RUNWAY INFORMATION
Runway 05 Runway length 9843 ft Runway width 197 ft
Runway elevation 2768 ft Runway displaced threshold 0 ft Runway heading 45
Runway 23 Runway length 9843 ft Runway width 197 ft
Runway elevation 2775 ft Runway displaced threshold 0 ft Runway heading 225
Runway 15 Runway length 2976 ft Runway width 197 ft
Runway elevation 2770 ft Runway displaced threshold 0 ft Runway heading 144
Runway 33 Runway length 2976 ft Runway width 197 ft
Runway elevation 2771 ft Runway displaced threshold 0 ft Runway heading 324

 AIRPORT FREQUENCIES
Type TWR Name TWR Frequency 122.2 MHZ

 AIRPORT NEAR NAVIGATION AIDS
Type TACAN Name Valladolid Frequency 108200 KHZ
Type NDB Name Valladolid Frequency 342 KHZ



Powered by Virtual Airlines Manager [v2.6.2]